Rota, Spain
Current Conditions -  °F | °C
As of 8:00 PM on Saturday 25 Oct 2014 (Local Time) from LERT Reporting Station
Clear Clear  
Wind Chill: 75°   Ceiling: Unl
Heat Index: 75°   Visibility: 6mi
Dew Point: 43°   Wind: 8mph
Humidity: 31%   Direction: 110°ESE
Pressure: 30.03"   Gusts: NA
Location:  36.62°N, 6.36°W
Report Text: LERT 251800Z 11007KT 060V170 CAVOK 24/06 Q1017 NOSIG
Loading
Personal Weather Stations






























Interactive Weather Map
Tropical Storm Tracking
New forecast layout! Learn more

10-Day Weather Forecast

Advertisements
Track Severe Weather on mobile